Time;durP1;ratioP1;P1;durP2;ratioP2;P2;SDS_P1;SDS_P2;PMS_P1;PMS_P2;Temp;Humidity;BMP_temperature;BMP_pressure;BME280_temperature;BME280_humidity;BME280_pressure;Samples;Min_cycle;Max_cycle;Signal;HPM_P1;HPM_P2
2022/01/20 00:03:41;;;;;;;17.20;4.03;;;;;;;2.00;80.96;100863.25;8170178;35;20435;-76
2022/01/20 00:09:07;;;;;;;16.98;4.35;;;;;;;1.87;82.14;100854.91;8173088;35;20290;-76
2022/01/20 00:37:15;;;;;;;16.55;4.55;;;;;;;1.71;85.74;100863.41;8170907;35;21967;-77
2022/01/20 00:40:55;;;;;;;15.35;4.50;;;;;;;1.48;86.35;100856.31;8171476;35;21263;-76
2022/01/20 00:46:00;;;;;;;19.58;3.83;;;;;;;1.50;85.87;100841.22;8171861;35;20788;-76
2022/01/20 00:51:03;;;;;;;14.68;3.85;;;;;;;1.50;85.93;100856.22;8179047;35;20233;-76
2022/01/20 00:56:06;;;;;;;16.35;4.95;;;;;;;1.47;86.11;100849.25;8201933;35;20737;-77
2022/01/20 01:01:12;;;;;;;7.75;2.35;;;;;;;1.40;86.33;100850.41;8190514;35;20151;-75
2022/01/20 01:06:28;;;;;;;15.05;3.88;;;;;;;1.34;86.77;100860.34;8170014;35;20140;-76
2022/01/20 01:11:31;;;;;;;12.98;4.18;;;;;;;1.43;86.74;100858.25;8169074;35;21445;-76
2022/01/20 01:19:59;;;;;;;13.38;4.50;;;;;;;1.51;86.11;100850.03;8190710;35;20291;-75
2022/01/20 01:22:20;;;;;;;11.73;4.07;;;;;;;1.33;85.91;100855.97;8170086;35;20206;-77
2022/01/20 01:27:26;;;;;;;15.00;4.90;;;;;;;1.61;85.68;100845.25;8190033;35;20152;-77
2022/01/20 01:32:40;;;;;;;17.73;4.20;;;;;;;1.38;86.55;100844.31;8190494;35;20706;-77
2022/01/20 01:43:13;;;;;;;17.48;5.07;;;;;;;1.98;84.43;100838.59;8168963;35;20227;-76
2022/01/20 01:48:17;;;;;;;19.23;4.60;;;;;;;1.85;84.86;100838.19;8170001;35;20247;-77
2022/01/20 01:53:21;;;;;;;19.13;5.15;;;;;;;1.84;85.11;100840.00;8189843;35;20491;-75
2022/01/20 01:58:25;;;;;;;11.45;3.75;;;;;;;1.63;86.55;100843.44;8189422;35;20601;-75
2022/01/20 02:04:07;;;;;;;11.30;4.05;;;;;;;1.80;87.39;100841.00;8146099;35;20210;-76
2022/01/20 02:09:32;;;;;;;10.82;2.85;;;;;;;1.45;88.84;100850.22;8168582;35;20205;-75
2022/01/20 02:20:12;;;;;;;19.50;4.82;;;;;;;1.65;89.07;100821.25;8187927;35;20191;-77
2022/01/20 02:25:38;;;;;;;22.65;4.35;;;;;;;1.46;89.08;100818.41;8169304;35;20195;-76
2022/01/20 02:30:43;;;;;;;3.97;2.58;;;;;;;1.43;89.22;100815.88;8189119;35;20515;-76
2022/01/20 02:35:53;;;;;;;6.57;2.45;;;;;;;1.38;88.27;100816.97;8188623;35;20156;-76
2022/01/20 02:46:26;;;;;;;3.88;2.70;;;;;;;1.35;88.92;100817.09;8189349;35;20199;-75
2022/01/20 02:51:30;;;;;;;17.15;3.38;;;;;;;1.47;89.26;100814.84;8191123;35;20198;-75
2022/01/20 02:56:37;;;;;;;8.63;2.58;;;;;;;1.38;89.03;100823.13;8205819;35;21445;-75
2022/01/20 03:01:40;;;;;;;7.75;3.10;;;;;;;1.58;88.04;100800.34;8188309;35;20144;-75
2022/01/20 03:06:45;;;;;;;8.27;3.65;;;;;;;1.48;87.51;100813.06;8190005;35;20187;-75
2022/01/20 03:11:50;;;;;;;9.40;2.90;;;;;;;1.80;86.33;100803.06;8191680;35;20263;-75
2022/01/20 03:16:53;;;;;;;5.93;3.20;;;;;;;1.42;87.49;100798.25;8188129;35;20187;-75
2022/01/20 03:21:58;;;;;;;8.90;2.42;;;;;;;1.78;85.96;100787.22;8168297;35;21503;-76
2022/01/20 03:27:01;;;;;;;12.63;3.67;;;;;;;1.82;85.82;100791.50;8178933;35;20237;-76
2022/01/20 03:32:05;;;;;;;9.32;3.00;;;;;;;1.90;85.24;100781.47;8187029;35;20228;-77
2022/01/20 03:37:09;;;;;;;5.07;2.35;;;;;;;1.80;85.49;100772.13;8196284;35;20715;-77
2022/01/20 03:42:45;;;;;;;12.70;3.05;;;;;;;1.89;85.12;100768.25;8162572;35;20198;-76
2022/01/20 03:47:51;;;;;;;3.78;1.80;;;;;;;1.54;87.30;100754.59;8171861;35;20215;-77
2022/01/20 03:52:55;;;;;;;10.40;3.00;;;;;;;1.56;88.28;100789.81;8172891;35;20258;-77
2022/01/20 03:57:59;;;;;;;7.13;2.97;;;;;;;1.81;87.44;100760.63;8171346;35;20913;-77
2022/01/20 04:03:07;;;;;;;9.43;2.72;;;;;;;1.87;85.52;100772.78;8192170;35;20234;-77
2022/01/20 04:08:30;;;;;;;6.60;2.05;;;;;;;1.85;84.49;100783.41;8192009;35;20276;-76
2022/01/20 04:13:35;;;;;;;5.05;2.00;;;;;;;1.98;83.55;100805.03;8172566;35;20689;-77
2022/01/20 04:18:52;;;;;;;5.10;2.13;;;;;;;2.09;84.16;100818.72;8170789;35;20338;-77
2022/01/20 04:24:00;;;;;;;7.57;1.85;;;;;;;1.54;86.72;100817.25;8192087;35;20642;-77
2022/01/20 04:29:07;;;;;;;6.13;2.28;;;;;;;1.88;85.82;100833.63;8171993;35;20875;-76
2022/01/20 04:34:12;;;;;;;6.13;1.75;;;;;;;1.39;88.27;100867.19;8191728;35;20195;-76
2022/01/20 04:39:22;;;;;;;4.30;1.52;;;;;;;1.18;89.14;100863.53;8170329;35;20188;-76
2022/01/20 04:44:39;;;;;;;2.70;1.48;;;;;;;0.58;89.17;100877.88;8191066;35;20844;-76
2022/01/20 05:00:26;;;;;;;5.88;1.55;;;;;;;0.29;88.89;100894.63;8200179;35;20195;-76
2022/01/20 05:05:48;;;;;;;4.57;1.90;;;;;;;0.69;87.93;100894.25;8173685;35;20897;-76
2022/01/20 05:10:54;;;;;;;3.50;2.10;;;;;;;0.70;87.86;100905.69;8191179;35;20229;-76
2022/01/20 05:15:57;;;;;;;7.32;2.30;;;;;;;0.44;87.35;100906.50;8191023;35;20156;-77
2022/01/20 05:21:01;;;;;;;6.57;2.40;;;;;;;0.48;86.99;100939.88;8170210;35;20204;-77
2022/01/20 05:26:07;;;;;;;8.40;2.03;;;;;;;0.61;86.89;100922.72;8191110;35;20167;-76
2022/01/20 05:31:10;;;;;;;9.85;3.00;;;;;;;0.26;86.56;100923.78;8189838;35;20192;-76
2022/01/20 05:36:22;;;;;;;7.63;2.53;;;;;;;0.44;86.12;100947.03;8191591;35;20195;-76
2022/01/20 05:41:27;;;;;;;6.60;2.40;;;;;;;0.41;86.16;100947.09;8170148;35;21030;-76
2022/01/20 05:46:42;;;;;;;9.02;2.50;;;;;;;0.36;85.95;100949.91;8176458;35;20999;-76
2022/01/20 05:51:59;;;;;;;10.25;2.65;;;;;;;0.41;85.11;100957.69;8181501;35;21212;-76
2022/01/20 05:57:04;;;;;;;7.55;2.22;;;;;;;0.42;84.51;100961.22;8198209;35;20164;-76
2022/01/20 06:02:24;;;;;;;7.67;3.17;;;;;;;0.65;83.76;100974.59;8169850;35;20195;-74
2022/01/20 06:07:27;;;;;;;16.42;3.60;;;;;;;0.47;83.18;100977.81;8169974;35;21617;-77
2022/01/20 06:12:32;;;;;;;10.52;3.20;;;;;;;0.43;82.51;100995.50;8169380;35;20933;-77
2022/01/20 06:17:36;;;;;;;10.20;3.43;;;;;;;0.74;82.20;101002.53;8171393;35;20195;-77
2022/01/20 06:22:44;;;;;;;10.50;3.70;;;;;;;0.06;80.90;101001.00;8190494;35;20259;-76
2022/01/20 06:27:51;;;;;;;14.25;2.97;;;;;;;0.42;80.75;101011.44;8191143;35;20256;-76
2022/01/20 06:32:54;;;;;;;12.25;3.30;;;;;;;0.43;80.95;101024.59;8192210;35;20195;-76
2022/01/20 06:38:06;;;;;;;6.40;2.87;;;;;;;0.29;80.18;101024.13;8194097;35;20183;-76
2022/01/20 06:43:11;;;;;;;8.00;3.07;;;;;;;0.13;80.18;101031.59;8193765;35;20183;-75
2022/01/20 06:48:16;;;;;;;9.82;3.00;;;;;;;0.21;80.44;101055.19;8173795;35;20148;-75
2022/01/20 06:53:42;;;;;;;9.13;3.77;;;;;;;0.15;80.79;101056.22;8171590;35;20182;-75
2022/01/20 06:58:47;;;;;;;9.40;3.33;;;;;;;-0.12;81.71;101063.09;8194401;35;20156;-74
2022/01/20 07:03:51;;;;;;;9.73;2.90;;;;;;;0.22;81.57;101075.41;8172841;35;20191;-74
2022/01/20 07:08:54;;;;;;;8.17;2.87;;;;;;;-0.02;81.24;101085.72;8192004;35;20234;-75
2022/01/20 07:13:59;;;;;;;11.40;3.27;;;;;;;-0.28;80.83;101096.94;8191742;35;20685;-75
2022/01/20 07:19:03;;;;;;;12.50;3.83;;;;;;;-0.31;80.67;101097.88;8172017;35;20152;-75
2022/01/20 07:24:07;;;;;;;14.75;3.50;;;;;;;0.18;79.94;101111.63;8175837;35;20569;-75
2022/01/20 07:29:11;;;;;;;14.83;3.07;;;;;;;0.14;79.93;101136.41;8191360;35;20522;-76
2022/01/20 07:34:15;;;;;;;13.70;4.43;;;;;;;0.26;79.58;101137.84;8192524;35;20285;-76
2022/01/20 07:39:18;;;;;;;10.25;3.53;;;;;;;0.07;79.47;101148.03;8191284;35;20175;-75
2022/01/20 07:44:23;;;;;;;16.15;3.65;;;;;;;-0.10;80.26;101157.22;8191799;35;20184;-75
2022/01/20 07:49:42;;;;;;;10.02;2.75;;;;;;;-0.10;78.94;101165.16;8191440;35;20216;-75
2022/01/20 07:54:46;;;;;;;13.27;3.33;;;;;;;0.22;78.67;101165.25;8191025;35;20599;-75
2022/01/20 07:59:51;;;;;;;12.47;3.93;;;;;;;0.08;77.17;101166.50;8191256;35;20183;-76
2022/01/20 08:04:58;;;;;;;8.32;3.10;;;;;;;0.39;77.04;101176.28;8192736;35;20191;-75
2022/01/20 08:10:01;;;;;;;15.07;3.08;;;;;;;0.61;77.53;101177.44;8171993;35;20206;-75
2022/01/20 08:15:09;;;;;;;14.38;3.45;;;;;;;0.46;76.96;101187.53;8172606;35;20272;-76
2022/01/20 08:20:18;;;;;;;11.98;2.97;;;;;;;0.59;77.46;101181.03;8166027;35;20610;-77
2022/01/20 08:25:28;;;;;;;13.48;3.97;;;;;;;0.57;77.39;101194.28;8187746;35;20218;-77
2022/01/20 08:30:33;;;;;;;6.82;2.30;;;;;;;0.41;76.99;101192.06;8167527;35;20250;-76
2022/01/20 08:35:37;;;;;;;6.18;2.30;;;;;;;0.38;77.67;101198.31;8191483;35;20191;-76
2022/01/20 08:40:45;;;;;;;12.82;3.42;;;;;;;0.22;78.76;101200.50;8195849;35;20689;-75
2022/01/20 08:45:49;;;;;;;9.57;2.63;;;;;;;0.24;78.30;101190.72;8172771;35;20271;-75
2022/01/20 08:50:55;;;;;;;11.00;4.43;;;;;;;0.08;78.78;101192.03;8191183;35;20600;-77
2022/01/20 08:55:59;;;;;;;9.50;2.35;;;;;;;0.08;79.00;101202.59;8191098;35;20167;-76
2022/01/20 09:01:09;;;;;;;8.25;2.63;;;;;;;0.35;78.01;101215.13;8172057;35;20513;-75
2022/01/20 09:06:12;;;;;;;4.22;1.70;;;;;;;1.40;75.97;101212.25;8171016;35;20188;-75
2022/01/20 09:11:25;;;;;;;12.98;3.10;;;;;;;1.70;75.16;101215.75;8171734;35;20258;-76
2022/01/20 09:16:29;;;;;;;9.73;3.05;;;;;;;1.21;75.99;101218.09;8183253;35;20601;-75
2022/01/20 09:21:54;;;;;;;9.85;2.45;;;;;;;0.75;77.12;101213.22;8183696;35;20251;-74
2022/01/20 09:26:58;;;;;;;7.75;3.13;;;;;;;1.24;78.22;101214.50;8171338;35;20852;-78
2022/01/20 09:32:05;;;;;;;8.20;3.65;;;;;;;1.75;76.30;101200.56;8168017;35;20225;-77
2022/01/20 09:37:10;;;;;;;7.25;2.97;;;;;;;1.78;74.91;101218.16;8199365;35;20607;-76
2022/01/20 09:42:19;;;;;;;8.48;2.70;;;;;;;1.65;75.89;101215.03;8185505;35;20456;-76
2022/01/20 09:47:25;;;;;;;10.48;3.30;;;;;;;1.94;74.24;101241.47;8192265;35;20195;-75
2022/01/20 09:52:31;;;;;;;10.48;2.63;;;;;;;1.43;75.54;101265.13;8177379;35;20311;-75
2022/01/20 09:57:54;;;;;;;8.55;2.55;;;;;;;0.35;77.91;101265.34;8181991;35;20681;-76
2022/01/20 10:03:05;;;;;;;7.35;2.70;;;;;;;0.26;79.04;101249.72;8186742;35;20701;-76
2022/01/20 10:08:13;;;;;;;5.63;2.65;;;;;;;0.17;79.45;101255.22;8199459;35;20195;-75
2022/01/20 10:13:30;;;;;;;13.00;2.97;;;;;;;0.44;79.04;101264.25;8200679;35;20203;-76
2022/01/20 10:18:53;;;;;;;6.38;2.63;;;;;;;1.54;76.15;101256.84;8191048;35;20246;-76
2022/01/20 10:24:06;;;;;;;8.75;3.90;;;;;;;2.16;74.52;101256.69;8171095;35;20215;-77
2022/01/20 10:29:20;;;;;;;9.02;2.47;;;;;;;3.01;71.45;101245.00;8164617;35;20326;-75
2022/01/20 10:34:47;;;;;;;6.95;2.78;;;;;;;2.38;71.01;101256.88;8156770;35;20167;-74
2022/01/20 10:40:07;;;;;;;14.45;3.05;;;;;;;3.13;70.48;101261.41;8187538;35;20191;-74
2022/01/20 10:45:23;;;;;;;9.93;3.72;;;;;;;2.68;70.45;101251.50;8165282;35;21076;-75
2022/01/20 10:50:30;;;;;;;8.45;3.15;;;;;;;1.66;70.82;101253.84;8184719;35;20768;-74
2022/01/20 10:55:43;;;;;;;8.07;2.95;;;;;;;2.06;73.29;101257.94;8163465;35;20746;-74
2022/01/20 11:00:54;;;;;;;8.63;3.80;;;;;;;1.77;75.45;101274.72;8163991;35;22167;-75
2022/01/20 11:06:00;;;;;;;8.05;3.78;;;;;;;0.83;78.77;101277.38;8163408;35;20214;-74
2022/01/20 11:11:34;;;;;;;9.98;4.28;;;;;;;1.46;78.86;101280.94;8159428;35;21057;-74
2022/01/20 11:16:47;;;;;;;6.93;3.17;;;;;;;1.43;78.51;101281.88;8166272;35;20271;-74
2022/01/20 11:21:53;;;;;;;7.65;3.17;;;;;;;1.44;75.88;101282.75;8173933;35;20196;-74
2022/01/20 11:27:00;;;;;;;5.18;2.28;;;;;;;1.48;74.66;101269.38;8168298;35;20397;-74
2022/01/20 11:32:21;;;;;;;13.13;2.83;;;;;;;2.17;75.89;101255.81;8164891;35;21079;-74
2022/01/20 11:37:34;;;;;;;9.63;2.28;;;;;;;2.27;70.69;101233.34;8163349;35;20800;-75
2022/01/20 11:42:43;;;;;;;7.07;3.08;;;;;;;4.14;66.84;101233.59;8147844;35;21643;-74
2022/01/20 11:47:46;;;;;;;9.35;2.85;;;;;;;2.95;71.08;101239.03;8166462;35;20196;-75
2022/01/20 11:52:51;;;;;;;14.68;3.30;;;;;;;1.89;73.70;101224.88;8167282;35;20176;-75
2022/01/20 11:58:11;;;;;;;7.47;3.50;;;;;;;2.13;74.01;101228.50;8164373;35;20188;-74
2022/01/20 12:03:16;;;;;;;8.65;3.58;;;;;;;1.59;72.86;101223.16;8165157;35;20188;-74
2022/01/20 12:08:28;;;;;;;7.55;2.28;;;;;;;1.35;73.37;101214.19;8169367;35;20195;-75
2022/01/20 12:13:32;;;;;;;7.57;3.13;;;;;;;1.44;74.44;101237.72;8169643;35;20238;-74
2022/01/20 12:18:35;;;;;;;8.43;3.53;;;;;;;0.81;75.11;101232.44;8170302;35;20495;-76
2022/01/20 12:23:44;;;;;;;3.15;2.28;;;;;;;0.80;74.92;101206.91;8175591;35;20469;-75
2022/01/20 12:28:47;;;;;;;8.05;2.60;;;;;;;1.43;73.80;101194.50;8171557;35;20658;-75
2022/01/20 12:33:53;;;;;;;5.38;2.90;;;;;;;1.27;73.12;101207.31;8172604;35;20671;-75
2022/01/20 12:38:57;;;;;;;7.60;1.60;;;;;;;1.62;72.68;101201.88;8172128;35;20464;-75
2022/01/20 12:44:05;;;;;;;7.38;2.63;;;;;;;1.73;72.61;101208.59;8173021;35;20164;-74
2022/01/20 12:49:12;;;;;;;7.18;2.47;;;;;;;2.12;71.68;101202.06;8171842;35;20247;-75
2022/01/20 12:54:21;;;;;;;12.18;2.95;;;;;;;3.27;68.73;101182.97;8172768;35;20768;-75
2022/01/20 12:59:27;;;;;;;9.48;3.20;;;;;;;3.97;65.66;101170.47;8171404;35;20699;-77
2022/01/20 13:04:38;;;;;;;8.73;2.55;;;;;;;5.65;65.65;101171.94;8172697;35;20295;-75
2022/01/20 13:09:47;;;;;;;11.30;2.60;;;;;;;4.79;62.79;101183.84;8170538;35;20974;-75
2022/01/20 13:14:52;;;;;;;4.22;2.10;;;;;;;3.41;65.78;101179.78;8168126;35;20271;-77
2022/01/20 13:19:58;;;;;;;7.65;2.20;;;;;;;2.60;68.93;101219.91;8170616;35;20140;-75
2022/01/20 13:25:08;;;;;;;6.88;2.20;;;;;;;2.43;71.75;101238.16;8171328;35;20761;-75
2022/01/20 13:30:11;;;;;;;4.35;2.03;;;;;;;1.82;73.46;101225.13;8171452;35;20191;-76
2022/01/20 13:35:14;;;;;;;4.88;1.58;;;;;;;0.79;76.63;101246.59;8171369;35;20247;-76
2022/01/20 13:40:21;;;;;;;5.05;1.63;;;;;;;0.52;77.30;101235.84;8171183;35;20192;-76
2022/01/20 13:45:24;;;;;;;4.85;1.60;;;;;;;0.21;78.48;101240.16;8171083;35;20813;-76
2022/01/20 13:50:31;;;;;;;11.03;3.43;;;;;;;0.63;77.76;101256.72;8171531;35;20217;-76
2022/01/20 13:55:39;;;;;;;8.38;2.80;;;;;;;2.05;73.16;101246.44;8171120;35;20195;-76
2022/01/20 14:00:43;;;;;;;3.97;1.58;;;;;;;1.68;73.79;101244.09;8190486;35;20175;-76
2022/01/20 14:05:46;;;;;;;3.67;1.98;;;;;;;0.75;76.05;101234.38;8177669;35;20466;-75
2022/01/20 14:10:52;;;;;;;5.18;1.70;;;;;;;0.34;77.52;101241.59;8194503;35;20243;-75
2022/01/20 14:16:01;;;;;;;7.13;1.92;;;;;;;0.81;78.29;101244.78;8190498;35;20299;-75
2022/01/20 14:21:04;;;;;;;5.85;2.22;;;;;;;0.82;78.63;101244.75;8170915;35;21631;-75
2022/01/20 14:26:12;;;;;;;4.78;2.30;;;;;;;0.34;78.33;101254.81;8171185;35;20704;-75
2022/01/20 14:31:15;;;;;;;5.57;2.10;;;;;;;0.65;78.75;101254.03;8170831;35;20615;-75
2022/01/20 14:36:18;;;;;;;8.20;2.38;;;;;;;1.37;77.01;101255.59;8190484;35;21054;-74
2022/01/20 14:41:22;;;;;;;6.03;2.47;;;;;;;2.03;75.36;101263.31;8170577;35;21841;-75
2022/01/20 14:46:25;;;;;;;6.18;3.10;;;;;;;1.95;74.46;101277.69;8170165;35;20247;-75
2022/01/20 14:51:29;;;;;;;2.72;1.67;;;;;;;1.37;75.41;101276.78;8170173;35;20754;-76
2022/01/20 14:56:33;;;;;;;7.28;2.67;;;;;;;0.84;77.41;101279.09;8170482;35;20183;-75
2022/01/20 15:01:38;;;;;;;8.18;3.08;;;;;;;0.67;76.69;101273.38;8171719;35;20195;-75
2022/01/20 15:06:41;;;;;;;5.38;2.25;;;;;;;1.08;76.85;101289.94;8170337;35;20152;-75
2022/01/20 15:11:46;;;;;;;1.98;1.65;;;;;;;1.16;74.64;101285.31;8170825;35;20191;-77
2022/01/20 15:16:49;;;;;;;6.78;1.65;;;;;;;1.12;75.59;101294.22;8169729;35;20196;-76
2022/01/20 15:21:52;;;;;;;3.03;1.83;;;;;;;1.10;75.24;101281.06;8169200;35;20336;-76
2022/01/20 15:26:57;;;;;;;4.22;1.70;;;;;;;0.64;75.59;101298.13;8189190;35;20294;-74
2022/01/20 15:32:06;;;;;;;6.35;1.98;;;;;;;0.23;75.74;101305.28;8167219;35;20293;-76
2022/01/20 15:37:09;;;;;;;6.73;2.10;;;;;;;0.89;74.98;101338.03;8167481;35;20729;-77
2022/01/20 15:42:14;;;;;;;11.48;3.67;;;;;;;0.59;76.09;101323.81;8171087;35;21121;-76
2022/01/20 15:47:18;;;;;;;10.70;2.60;;;;;;;0.56;75.73;101313.31;8172516;35;20641;-77
2022/01/20 15:52:21;;;;;;;6.47;2.17;;;;;;;0.27;75.71;101309.59;8173214;35;20337;-77
2022/01/20 15:57:26;;;;;;;5.93;2.27;;;;;;;0.42;75.80;101312.78;8171569;35;20216;-75
2022/01/20 16:02:29;;;;;;;10.18;1.67;;;;;;;0.31;75.19;101315.69;8176582;35;20278;-75
2022/01/20 16:07:32;;;;;;;6.10;2.38;;;;;;;0.38;75.18;101314.63;8171991;35;20188;-75
2022/01/20 16:12:37;;;;;;;2.88;2.08;;;;;;;0.35;74.54;101342.00;8174558;35;20276;-77
2022/01/20 16:17:40;;;;;;;4.00;3.60;;;;;;;0.42;74.54;101331.31;8187915;35;21490;-75
2022/01/20 16:22:43;;;;;;;7.23;2.57;;;;;;;0.28;74.60;101339.56;8188978;35;20188;-75
2022/01/20 16:27:48;;;;;;;6.33;2.60;;;;;;;0.46;73.93;101333.81;8178457;35;20672;-74
2022/01/20 16:32:52;;;;;;;7.33;2.77;;;;;;;0.52;74.23;101333.69;8193031;35;20259;-76
2022/01/20 16:37:55;;;;;;;5.40;2.33;;;;;;;0.37;74.97;101352.53;8173588;35;20202;-76
2022/01/20 16:42:59;;;;;;;5.97;2.20;;;;;;;0.14;74.79;101334.59;8171263;35;20191;-75
2022/01/20 16:48:02;;;;;;;10.52;3.00;;;;;;;0.54;73.91;101331.84;8177479;35;20321;-76
2022/01/20 16:53:06;;;;;;;6.95;3.35;;;;;;;0.77;72.46;101354.25;8178586;35;20252;-75
2022/01/20 16:58:11;;;;;;;4.37;2.27;;;;;;;0.52;73.26;101364.53;8176694;35;20673;-75
2022/01/20 17:03:16;;;;;;;2.55;2.10;;;;;;;0.32;71.96;101365.00;8177038;35;20132;-75
2022/01/20 17:08:21;;;;;;;8.80;2.42;;;;;;;0.84;72.70;101382.25;8174368;35;21089;-75
2022/01/20 17:13:26;;;;;;;8.90;2.45;;;;;;;0.97;72.69;101398.72;8174805;35;20266;-76
2022/01/20 17:18:29;;;;;;;14.38;3.30;;;;;;;0.52;72.67;101397.16;8173144;35;20251;-76
2022/01/20 17:23:32;;;;;;;5.97;2.40;;;;;;;0.67;73.01;101398.53;8173081;35;20657;-76
2022/01/20 17:28:37;;;;;;;7.50;3.10;;;;;;;-0.26;74.93;101392.66;8172630;35;20160;-75
2022/01/20 17:33:40;;;;;;;14.30;2.90;;;;;;;0.47;73.95;101422.81;8170767;35;20542;-76
2022/01/20 17:38:44;;;;;;;6.47;3.30;;;;;;;0.32;74.22;101446.94;8174120;35;20550;-76
2022/01/20 17:43:49;;;;;;;22.48;9.45;;;;;;;0.35;75.25;101458.31;8192057;35;20159;-76
2022/01/20 17:48:52;;;;;;;6.83;2.50;;;;;;;0.06;76.35;101461.56;8172312;35;21473;-76
2022/01/20 17:53:55;;;;;;;13.40;3.17;;;;;;;0.14;77.08;101461.41;8165781;35;20187;-76
2022/01/20 17:58:59;;;;;;;5.68;2.67;;;;;;;-0.02;77.57;101467.91;8171009;35;20487;-75
2022/01/20 18:04:02;;;;;;;11.52;2.63;;;;;;;-0.01;78.49;101474.94;8169548;35;20192;-76
2022/01/20 18:09:05;;;;;;;8.70;3.10;;;;;;;-0.29;79.76;101462.25;8168205;35;20183;-75
2022/01/20 18:14:10;;;;;;;7.47;2.33;;;;;;;-0.39;80.13;101468.59;8170248;35;20171;-75
2022/01/20 18:19:14;;;;;;;5.80;2.42;;;;;;;-0.01;79.16;101467.00;8170044;35;20219;-76
2022/01/20 18:24:17;;;;;;;5.57;2.53;;;;;;;-0.23;78.89;101464.78;8169852;35;20789;-77
2022/01/20 18:29:22;;;;;;;13.73;4.13;;;;;;;-0.12;78.67;101475.13;8168805;35;20938;-75
2022/01/20 18:34:25;;;;;;;7.47;2.70;;;;;;;-0.08;78.30;101469.78;8173123;35;20188;-75
2022/01/20 18:39:28;;;;;;;7.15;2.47;;;;;;;0.12;77.73;101494.94;8174341;35;20194;-75
2022/01/20 18:44:32;;;;;;;3.27;2.30;;;;;;;0.31;77.15;101511.28;8168908;35;20258;-76
2022/01/20 18:49:35;;;;;;;9.20;2.58;;;;;;;-0.29;77.36;101502.72;8168977;35;20158;-76
2022/01/20 18:54:38;;;;;;;6.50;2.67;;;;;;;0.20;76.60;101516.78;8168906;35;20191;-77
2022/01/20 18:59:43;;;;;;;6.53;2.40;;;;;;;0.01;76.95;101532.13;8169465;35;20153;-77
2022/01/20 19:04:46;;;;;;;4.00;1.67;;;;;;;-0.08;76.41;101514.69;8172982;35;20219;-76
2022/01/20 19:09:49;;;;;;;5.53;2.78;;;;;;;-0.15;76.15;101517.47;8168482;35;20239;-78
2022/01/20 19:14:53;;;;;;;7.80;2.23;;;;;;;-0.20;76.72;101514.03;8168783;35;20270;-75
2022/01/20 19:19:56;;;;;;;6.53;2.53;;;;;;;-0.01;76.89;101520.69;8169930;35;20780;-76
2022/01/20 19:24:59;;;;;;;8.37;2.50;;;;;;;0.12;76.46;101543.34;8170502;35;20159;-75
2022/01/20 19:30:08;;;;;;;5.23;2.63;;;;;;;-0.47;76.98;101552.34;8168096;35;20247;-76
2022/01/20 19:35:13;;;;;;;4.90;2.27;;;;;;;-0.48;77.09;101542.69;8168474;35;20195;-75
2022/01/20 19:40:17;;;;;;;6.70;2.47;;;;;;;-0.60;78.16;101552.56;8171978;35;20195;-76
2022/01/20 19:45:21;;;;;;;12.10;2.70;;;;;;;-0.25;77.79;101551.06;8169484;35;20212;-76
2022/01/20 19:50:25;;;;;;;5.13;2.43;;;;;;;-0.26;77.80;101569.59;8171497;35;20226;-76
2022/01/20 19:55:30;;;;;;;5.50;2.80;;;;;;;-0.59;78.39;101567.47;8169291;35;20148;-77
2022/01/20 20:00:35;;;;;;;9.70;2.97;;;;;;;-0.59;78.81;101585.97;8169632;35;20479;-76
2022/01/20 20:05:41;;;;;;;8.40;2.53;;;;;;;-0.61;79.01;101584.25;8170260;35;20709;-75
2022/01/20 20:10:45;;;;;;;11.13;3.23;;;;;;;-0.58;78.60;101585.06;8163355;35;20214;-77
2022/01/20 20:15:49;;;;;;;10.23;2.78;;;;;;;-0.54;77.88;101597.31;8169679;35;20268;-76
2022/01/20 20:20:53;;;;;;;11.13;3.00;;;;;;;-0.37;77.28;101598.81;8169850;35;20155;-77
2022/01/20 20:25:56;;;;;;;10.30;2.80;;;;;;;-0.34;76.70;101610.19;8172703;35;20320;-76
2022/01/20 20:31:01;;;;;;;8.43;3.10;;;;;;;-0.39;77.28;101619.97;8175176;35;20180;-76
2022/01/20 20:36:05;;;;;;;9.80;3.10;;;;;;;-0.42;77.68;101622.66;8173614;35;20192;-75
2022/01/20 20:41:09;;;;;;;8.87;3.07;;;;;;;-0.35;77.68;101632.22;8173470;35;20211;-77
2022/01/20 20:46:14;;;;;;;9.37;3.17;;;;;;;-0.34;78.01;101646.31;8173477;35;20209;-76
2022/01/20 20:51:17;;;;;;;9.53;2.93;;;;;;;-0.46;79.01;101657.94;8184519;35;20196;-76
2022/01/20 20:56:21;;;;;;;9.87;3.17;;;;;;;-0.61;79.49;101644.94;8172060;35;20947;-75
2022/01/20 21:01:26;;;;;;;10.63;2.63;;;;;;;-0.31;78.10;101659.47;8173868;35;20731;-76
2022/01/20 21:06:31;;;;;;;9.00;2.88;;;;;;;-0.40;78.48;101654.31;8174401;35;20678;-77
2022/01/20 21:11:34;;;;;;;8.20;3.60;;;;;;;-0.73;79.68;101653.91;8171005;35;20148;-76
2022/01/20 21:16:39;;;;;;;8.70;3.13;;;;;;;-0.65;79.63;101659.09;8170808;35;20643;-76
2022/01/20 21:21:42;;;;;;;10.63;2.57;;;;;;;-0.90;80.30;101661.19;8174311;35;20516;-76
2022/01/20 21:26:45;;;;;;;8.18;2.50;;;;;;;-0.38;78.58;101674.53;8171106;35;20473;-75
2022/01/20 21:31:50;;;;;;;9.27;3.23;;;;;;;-0.53;78.83;101680.88;8171377;35;20195;-75
2022/01/20 21:36:53;;;;;;;11.20;2.80;;;;;;;-0.60;79.00;101684.53;8170348;35;20684;-75
2022/01/20 21:41:56;;;;;;;9.43;2.47;;;;;;;-0.29;78.52;101697.28;8166109;35;20705;-77
2022/01/20 21:47:04;;;;;;;8.23;3.07;;;;;;;0.01;77.30;101706.50;8169031;35;20156;-77
2022/01/20 21:52:09;;;;;;;7.57;2.50;;;;;;;0.00;77.18;101712.69;8168676;35;20660;-76
2022/01/20 21:57:13;;;;;;;10.10;3.73;;;;;;;-0.00;76.99;101711.78;8168736;35;20349;-77
2022/01/20 22:02:17;;;;;;;6.90;2.60;;;;;;;0.10;76.78;101716.03;8168726;35;20653;-75
2022/01/20 22:07:21;;;;;;;9.83;3.00;;;;;;;-0.25;78.00;101704.25;8169754;35;20156;-77
2022/01/20 22:12:24;;;;;;;7.83;2.43;;;;;;;-0.50;79.13;101694.03;8170472;35;20176;-75
2022/01/20 22:17:28;;;;;;;8.95;3.42;;;;;;;-0.46;80.10;101700.19;8171010;35;21625;-75
2022/01/20 22:22:31;;;;;;;10.03;3.03;;;;;;;-0.75;80.23;101701.44;8171397;35;20678;-75
2022/01/20 22:27:34;;;;;;;8.10;3.10;;;;;;;-0.56;80.05;101707.34;8170500;35;21085;-75
2022/01/20 22:32:39;;;;;;;10.10;3.33;;;;;;;-0.91;80.67;101718.34;8171151;35;20148;-75
2022/01/20 22:37:42;;;;;;;8.70;3.22;;;;;;;-0.56;79.48;101722.31;8180531;35;20609;-76
2022/01/20 22:42:48;;;;;;;10.90;2.67;;;;;;;-0.74;80.02;101716.38;8176662;35;21231;-75
2022/01/20 22:47:53;;;;;;;8.03;3.33;;;;;;;-0.77;80.03;101734.91;8171151;35;20478;-75
2022/01/20 22:52:56;;;;;;;6.50;2.93;;;;;;;-0.64;79.61;101737.38;8188763;35;20194;-76
2022/01/20 22:58:00;;;;;;;11.37;3.23;;;;;;;-0.90;81.20;101729.81;8169479;35;21462;-75
2022/01/20 23:03:05;;;;;;;8.80;2.90;;;;;;;-0.97;81.98;101737.75;8174407;35;20251;-75
2022/01/20 23:08:09;;;;;;;10.50;3.13;;;;;;;-1.24;81.82;101743.34;8174488;35;20210;-76
2022/01/20 23:13:14;;;;;;;9.07;2.93;;;;;;;-1.23;81.73;101734.56;8169706;35;20341;-76
2022/01/20 23:18:32;;;;;;;10.10;3.40;;;;;;;-1.17;82.21;101727.44;8169281;35;20444;-75
2022/01/20 23:23:43;;;;;;;7.97;3.17;;;;;;;-1.18;81.72;101745.91;8169818;35;20190;-75
2022/01/20 23:28:48;;;;;;;9.93;3.13;;;;;;;-1.07;81.61;101761.63;8169172;35;20198;-75
2022/01/20 23:33:57;;;;;;;10.40;3.00;;;;;;;-1.18;82.86;101767.91;8169427;35;20187;-75
2022/01/20 23:39:01;;;;;;;4.17;2.40;;;;;;;-0.98;82.00;101774.72;8168973;35;20195;-77
2022/01/20 23:44:27;;;;;;;8.57;3.23;;;;;;;-1.23;82.94;101771.47;8169338;35;20291;-76
2022/01/20 23:49:32;;;;;;;5.37;2.70;;;;;;;-1.25;82.68;101782.03;8169159;35;20196;-76
2022/01/20 23:54:35;;;;;;;6.47;3.70;;;;;;;-1.43;84.06;101779.56;8169715;35;20737;-74
2022/01/20 23:59:38;;;;;;;13.67;4.17;;;;;;;-1.27;82.72;101788.19;8168715;35;20271;-77
